Time;durP1;ratioP1;P1;durP2;ratioP2;P2;SDS_P1;SDS_P2;PMS_P1;PMS_P2;Temp;Humidity;BMP_temperature;BMP_pressure;BME280_temperature;BME280_humidity;BME280_pressure;Samples;Min_cycle;Max_cycle;Signal;HPM_P1;HPM_P2
2021/07/23 00:01:00;;;;;;;8.00;2.75;;;;;;;12.79;96.34;99374.80;1780954;80;20954;-74
2021/07/23 00:03:27;;;;;;;8.45;2.50;;;;;;;12.75;95.83;99373.05;1780582;80;20918;-74
2021/07/23 00:05:53;;;;;;;9.45;3.20;;;;;;;12.68;95.82;99376.36;1780798;80;21441;-73
2021/07/23 00:08:20;;;;;;;6.50;2.58;;;;;;;12.67;95.91;99376.69;1780647;80;20922;-74
2021/07/23 00:10:47;;;;;;;7.62;2.33;;;;;;;12.69;96.26;99380.72;1780576;80;21175;-74
2021/07/23 00:13:13;;;;;;;5.62;2.25;;;;;;;12.72;96.38;99377.84;1800795;77;21404;-74
2021/07/23 00:15:41;;;;;;;4.47;2.42;;;;;;;12.75;96.29;99373.05;1845676;77;20829;-75
2021/07/23 00:18:08;;;;;;;6.35;2.40;;;;;;;12.79;96.25;99373.98;1774551;80;21538;-75
2021/07/23 00:20:34;;;;;;;5.80;2.42;;;;;;;12.83;96.24;99374.36;1795810;80;21403;-74
2021/07/23 00:23:00;;;;;;;8.73;2.45;;;;;;;12.87;95.96;99382.77;1774546;80;21012;-74
2021/07/23 00:25:27;;;;;;;5.17;2.67;;;;;;;12.88;95.74;99376.92;1795433;80;20951;-74
2021/07/23 00:27:54;;;;;;;5.12;2.87;;;;;;;12.92;95.66;99378.44;1774956;80;20884;-78
2021/07/23 00:30:21;;;;;;;7.03;2.45;;;;;;;12.96;95.46;99380.76;1782225;80;20936;-78
2021/07/23 00:32:48;;;;;;;4.15;2.10;;;;;;;12.98;95.07;99374.34;1785858;80;20939;-78
2021/07/23 00:35:14;;;;;;;5.62;2.65;;;;;;;13.01;95.00;99379.19;1786164;80;21009;-77
2021/07/23 00:37:42;;;;;;;5.25;2.60;;;;;;;13.03;94.70;99379.66;1785718;80;20915;-79
2021/07/23 00:40:11;;;;;;;12.68;2.40;;;;;;;13.05;94.37;99377.37;1785822;80;20884;-75
2021/07/23 00:42:42;;;;;;;4.95;2.50;;;;;;;13.08;94.22;99375.89;1786118;80;21043;-74
2021/07/23 00:45:10;;;;;;;8.30;2.10;;;;;;;13.07;94.23;99384.73;1785735;80;21006;-74
2021/07/23 00:47:41;;;;;;;6.08;2.22;;;;;;;13.06;94.29;99380.36;1785833;80;21800;-75
2021/07/23 00:50:09;;;;;;;7.45;2.55;;;;;;;13.05;94.38;99382.08;1785800;80;20958;-77
2021/07/23 00:52:35;;;;;;;6.90;2.05;;;;;;;13.03;94.51;99377.47;1786100;80;20943;-75
2021/07/23 00:55:02;;;;;;;6.85;2.52;;;;;;;13.02;94.55;99379.42;1785859;80;21403;-78
2021/07/23 00:57:30;;;;;;;7.33;2.37;;;;;;;13.00;94.30;99379.52;1757294;80;20930;-78
2021/07/23 00:59:57;;;;;;;5.25;2.15;;;;;;;12.99;94.37;99373.77;1757679;80;21178;-78
2021/07/23 01:02:25;;;;;;;5.60;2.30;;;;;;;12.96;94.25;99369.73;1785547;80;21446;-78
2021/07/23 01:04:51;;;;;;;6.08;2.47;;;;;;;12.93;94.33;99370.41;1786150;80;20875;-78
2021/07/23 01:07:18;;;;;;;5.08;2.12;;;;;;;12.84;94.14;99363.58;1785870;80;20991;-78
2021/07/23 01:09:44;;;;;;;8.20;2.25;;;;;;;12.77;94.33;99370.77;1779458;80;20864;-78
2021/07/23 01:12:14;;;;;;;7.40;2.55;;;;;;;12.70;94.52;99374.08;1792712;80;21057;-78
2021/07/23 01:14:42;;;;;;;9.53;2.27;;;;;;;12.61;94.59;99373.89;1795968;80;21442;-78
2021/07/23 01:17:11;;;;;;;5.10;2.40;;;;;;;12.53;94.69;99376.36;1795818;80;20915;-78
2021/07/23 01:20:01;;;;;;;6.03;2.25;;;;;;;12.46;94.83;99373.89;1764742;80;21528;-78
2021/07/23 01:22:29;;;;;;;6.28;2.17;;;;;;;12.37;94.90;99371.75;1795709;80;20982;-78
2021/07/23 01:24:57;;;;;;;6.40;2.22;;;;;;;12.27;95.11;99370.17;1796210;80;21780;-77
2021/07/23 01:27:26;;;;;;;4.10;2.20;;;;;;;12.20;95.13;99371.26;1795801;80;20978;-77
2021/07/23 01:30:03;;;;;;;8.85;2.58;;;;;;;12.18;95.21;99367.46;1796108;80;20951;-76
2021/07/23 01:32:30;;;;;;;8.38;2.27;;;;;;;12.19;95.38;99369.64;1793951;80;21493;-78
2021/07/23 01:34:57;;;;;;;14.00;2.37;;;;;;;12.22;95.56;99372.55;1795804;80;20970;-78
2021/07/23 01:37:24;;;;;;;7.12;2.50;;;;;;;12.24;95.75;99370.84;1795829;80;21091;-78
2021/07/23 01:39:51;;;;;;;8.40;2.40;;;;;;;12.23;95.40;99367.84;1796080;80;20939;-77
2021/07/23 01:42:19;;;;;;;8.63;2.65;;;;;;;12.21;95.32;99370.13;1795623;80;20979;-74
2021/07/23 01:44:46;;;;;;;16.12;2.87;;;;;;;12.21;95.64;99365.99;1791968;79;20984;-74
2021/07/23 01:47:12;;;;;;;9.98;2.85;;;;;;;12.23;95.63;99366.47;1789089;80;20915;-74
2021/07/23 01:49:39;;;;;;;8.00;2.27;;;;;;;12.25;95.65;99372.45;1789105;79;21989;-73
2021/07/23 01:52:06;;;;;;;7.55;2.42;;;;;;;12.26;95.66;99375.44;1788976;80;20931;-75
2021/07/23 01:54:40;;;;;;;6.33;2.50;;;;;;;12.26;95.67;99370.51;1787566;80;21490;-75
2021/07/23 01:57:07;;;;;;;7.08;2.62;;;;;;;12.27;95.77;99372.12;1789061;80;21025;-75
2021/07/23 01:59:34;;;;;;;6.30;2.83;;;;;;;12.28;95.66;99372.36;1789466;80;20936;-75
2021/07/23 02:02:01;;;;;;;6.72;2.52;;;;;;;12.29;95.61;99368.47;1789170;80;22158;-75
2021/07/23 02:04:34;;;;;;;4.97;2.37;;;;;;;12.29;95.68;99367.90;1787206;80;20916;-77
2021/07/23 02:07:02;;;;;;;6.70;2.50;;;;;;;12.29;95.89;99370.66;1789097;80;20912;-75
2021/07/23 02:09:28;;;;;;;5.30;2.12;;;;;;;12.26;95.64;99368.56;1789046;80;20919;-75
2021/07/23 02:11:58;;;;;;;7.97;2.47;;;;;;;12.20;95.81;99372.06;1789019;79;20971;-74
2021/07/23 02:14:30;;;;;;;6.28;2.67;;;;;;;12.16;95.96;99368.92;1787172;80;21565;-75
2021/07/23 02:16:57;;;;;;;7.87;2.12;;;;;;;12.12;96.44;99373.51;1759879;80;21028;-74
2021/07/23 02:19:25;;;;;;;5.00;2.00;;;;;;;12.10;96.98;99375.21;1769986;79;20992;-75
2021/07/23 02:21:54;;;;;;;5.85;2.12;;;;;;;12.10;97.25;99367.53;1781437;80;21487;-74
2021/07/23 02:24:20;;;;;;;4.67;2.22;;;;;;;12.09;97.39;99374.16;1789232;79;20848;-74
2021/07/23 02:26:47;;;;;;;5.37;2.33;;;;;;;12.08;97.39;99374.73;1789028;80;21121;-74
2021/07/23 02:29:14;;;;;;;6.72;2.35;;;;;;;12.08;97.50;99374.73;1789103;80;20832;-74
2021/07/23 02:31:42;;;;;;;8.95;2.50;;;;;;;12.08;97.59;99371.98;1788990;80;20844;-74
2021/07/23 02:34:10;;;;;;;5.42;2.25;;;;;;;12.09;97.60;99378.30;1788513;80;20915;-78
2021/07/23 02:36:37;;;;;;;5.42;2.80;;;;;;;12.10;97.55;99377.16;1789322;80;21466;-78
2021/07/23 02:39:05;;;;;;;5.95;2.60;;;;;;;12.10;97.53;99371.66;1788329;79;21520;-78
2021/07/23 02:41:33;;;;;;;8.15;2.33;;;;;;;12.11;97.59;99369.95;1788977;80;20880;-79
2021/07/23 02:44:00;;;;;;;5.15;2.70;;;;;;;12.14;97.71;99374.77;1790351;79;22230;-78
2021/07/23 02:46:28;;;;;;;6.47;2.47;;;;;;;12.18;97.74;99372.16;1799094;79;20966;-78
2021/07/23 02:48:55;;;;;;;7.00;2.55;;;;;;;12.21;97.76;99370.92;1798993;79;21378;-76
2021/07/23 02:51:24;;;;;;;9.90;3.22;;;;;;;12.24;97.63;99370.27;1798958;79;21491;-77
2021/07/23 02:53:52;;;;;;;7.30;2.65;;;;;;;12.26;97.73;99364.43;1799270;79;21006;-74
2021/07/23 02:56:19;;;;;;;10.60;2.30;;;;;;;12.32;97.74;99367.23;1799003;79;21477;-76
2021/07/23 02:58:47;;;;;;;7.45;2.47;;;;;;;12.36;97.65;99369.56;1788468;79;21022;-74
2021/07/23 03:01:14;;;;;;;8.08;2.50;;;;;;;12.42;97.48;99370.19;1790895;79;20987;-74
2021/07/23 03:03:42;;;;;;;5.90;2.90;;;;;;;12.48;97.16;99367.48;1767531;81;21144;-73
2021/07/23 03:06:09;;;;;;;8.70;2.70;;;;;;;12.55;96.85;99372.70;1767643;81;20927;-74
2021/07/23 03:08:36;;;;;;;5.10;2.45;;;;;;;12.62;96.45;99371.38;1767503;81;20974;-75
2021/07/23 03:11:03;;;;;;;12.70;2.52;;;;;;;12.68;96.08;99372.22;1767623;81;20973;-73
2021/07/23 03:13:31;;;;;;;8.35;2.67;;;;;;;12.75;95.68;99374.42;1780663;79;20910;-74
2021/07/23 03:15:58;;;;;;;7.90;2.55;;;;;;;12.80;95.21;99372.84;1799171;79;21516;-74
2021/07/23 03:18:25;;;;;;;15.53;3.10;;;;;;;12.85;94.84;99379.54;1799300;79;21007;-74
2021/07/23 03:20:51;;;;;;;8.83;2.72;;;;;;;12.89;94.57;99374.97;1799196;79;20852;-73
2021/07/23 03:23:18;;;;;;;13.65;2.90;;;;;;;12.95;94.35;99379.14;1799829;79;21026;-73
2021/07/23 03:25:46;;;;;;;8.03;3.20;;;;;;;13.00;94.06;99377.56;1798900;79;20959;-73
2021/07/23 03:28:20;;;;;;;5.47;2.80;;;;;;;13.04;94.03;99378.51;1782976;79;21478;-74
2021/07/23 03:30:49;;;;;;;6.20;2.70;;;;;;;13.09;93.84;99376.13;1798051;79;20919;-74
2021/07/23 03:33:16;;;;;;;12.60;3.17;;;;;;;13.13;93.51;99377.88;1799609;79;21573;-75
2021/07/23 03:35:43;;;;;;;9.63;3.27;;;;;;;13.19;93.34;99371.05;1799267;79;20939;-74
2021/07/23 03:38:12;;;;;;;10.18;2.87;;;;;;;13.25;92.82;99372.22;1799692;79;20906;-74
2021/07/23 03:40:38;;;;;;;5.65;2.85;;;;;;;13.28;92.36;99378.44;1799300;79;21501;-74
2021/07/23 03:43:09;;;;;;;7.00;2.50;;;;;;;13.32;91.83;99380.15;1798910;79;21564;-74
2021/07/23 03:45:37;;;;;;;8.45;2.70;;;;;;;13.37;91.31;99383.27;1796635;79;20971;-74
2021/07/23 03:48:06;;;;;;;13.48;2.80;;;;;;;13.42;90.73;99385.25;1797935;79;20910;-74
2021/07/23 03:50:34;;;;;;;5.60;2.98;;;;;;;13.48;90.37;99383.90;1798437;79;20879;-74
2021/07/23 03:53:01;;;;;;;8.93;2.98;;;;;;;13.53;89.78;99385.64;1798952;79;21527;-74
2021/07/23 03:55:35;;;;;;;6.92;3.08;;;;;;;13.59;89.90;99385.66;1782476;79;21458;-74
2021/07/23 03:58:04;;;;;;;10.40;3.25;;;;;;;13.64;89.37;99381.89;1799063;79;20955;-74
2021/07/23 04:00:31;;;;;;;9.95;3.37;;;;;;;13.68;88.72;99379.48;1798860;79;21438;-74
2021/07/23 04:02:58;;;;;;;5.47;2.85;;;;;;;13.71;88.64;99387.09;1798856;79;21002;-74
2021/07/23 04:05:26;;;;;;;9.75;2.95;;;;;;;13.76;88.93;99381.36;1799062;79;22139;-74
2021/07/23 04:07:52;;;;;;;13.28;3.10;;;;;;;13.85;89.61;99385.41;1798957;79;20915;-73
2021/07/23 04:10:19;;;;;;;11.12;2.98;;;;;;;13.89;89.14;99381.59;1769823;79;20939;-73
2021/07/23 04:12:46;;;;;;;9.05;3.10;;;;;;;13.95;88.95;99381.38;1769529;79;21021;-73
2021/07/23 04:15:15;;;;;;;6.85;2.98;;;;;;;14.00;88.79;99379.77;1796183;80;20876;-73
2021/07/23 04:18:00;;;;;;;6.83;2.95;;;;;;;14.05;88.55;99382.31;1731207;83;21162;-74
2021/07/23 04:20:27;;;;;;;17.10;3.15;;;;;;;14.13;87.46;99378.65;1726003;81;20948;-75
2021/07/23 04:22:55;;;;;;;5.33;2.70;;;;;;;14.18;87.02;99379.80;1711402;82;21627;-74
2021/07/23 04:25:22;;;;;;;6.75;2.70;;;;;;;14.24;86.86;99377.63;1715024;82;20876;-75
2021/07/23 04:27:49;;;;;;;10.08;2.83;;;;;;;14.29;86.96;99380.97;1704727;84;21011;-74
2021/07/23 04:30:17;;;;;;;10.53;3.02;;;;;;;14.35;87.49;99377.41;1703903;84;21155;-75
2021/07/23 04:33:03;;;;;;;9.98;3.62;;;;;;;14.42;86.84;99377.67;1704583;84;21005;-75
2021/07/23 04:35:29;;;;;;;9.83;3.22;;;;;;;14.51;86.46;99372.23;1711437;81;21555;-74
2021/07/23 04:37:56;;;;;;;7.80;2.60;;;;;;;14.57;85.87;99373.38;1715244;82;20944;-72
2021/07/23 04:40:25;;;;;;;7.60;2.90;;;;;;;14.64;85.55;99369.45;1702659;84;20897;-76
2021/07/23 04:42:51;;;;;;;12.95;2.95;;;;;;;14.71;85.31;99371.06;1704908;84;21149;-73
2021/07/23 04:45:19;;;;;;;15.15;3.10;;;;;;;14.79;85.82;99368.17;1723505;82;21510;-73
2021/07/23 04:47:47;;;;;;;14.10;3.42;;;;;;;14.88;85.36;99370.81;1749114;82;20971;-74
2021/07/23 04:50:14;;;;;;;10.68;2.72;;;;;;;14.99;85.13;99373.90;1780741;80;21419;-74
2021/07/23 04:53:00;;;;;;;9.03;2.87;;;;;;;15.08;85.62;99368.44;1776844;80;20924;-73
2021/07/23 04:55:50;;;;;;;7.28;2.80;;;;;;;15.20;84.92;99365.63;1780782;80;21961;-74
2021/07/23 04:58:16;;;;;;;9.10;3.05;;;;;;;15.31;83.40;99374.81;1780266;80;20908;-72
2021/07/23 05:00:45;;;;;;;8.78;2.50;;;;;;;15.41;84.77;99369.59;1781076;80;20926;-74
2021/07/23 05:03:12;;;;;;;7.03;3.10;;;;;;;15.52;83.45;99370.70;1780723;80;20841;-74
2021/07/23 05:05:41;;;;;;;5.87;2.58;;;;;;;15.63;83.35;99368.23;1781017;80;20970;-74
2021/07/23 05:08:09;;;;;;;15.20;2.50;;;;;;;15.76;83.68;99368.98;1780947;80;21117;-75
2021/07/23 05:10:36;;;;;;;11.12;2.98;;;;;;;15.89;82.06;99373.86;1780565;80;20868;-75
2021/07/23 05:13:06;;;;;;;11.80;2.83;;;;;;;15.98;80.89;99374.50;1779169;80;20897;-74
2021/07/23 05:15:33;;;;;;;3.83;2.52;;;;;;;16.04;79.62;99378.62;1795994;80;20860;-74
2021/07/23 05:18:00;;;;;;;6.55;2.55;;;;;;;16.12;78.97;99378.45;1774682;80;20940;-73
2021/07/23 05:20:26;;;;;;;6.60;2.42;;;;;;;16.19;78.07;99375.83;1795642;80;21955;-74
2021/07/23 05:22:53;;;;;;;8.63;2.20;;;;;;;16.26;77.73;99377.97;1774532;80;20919;-74
2021/07/23 05:25:19;;;;;;;6.67;2.47;;;;;;;16.33;77.94;99371.81;1786628;79;20971;-75
2021/07/23 05:27:46;;;;;;;4.70;2.27;;;;;;;16.45;79.52;99368.95;1781056;80;21423;-74
2021/07/23 05:30:13;;;;;;;4.90;2.20;;;;;;;16.61;80.73;99366.16;1780840;80;20837;-74
2021/07/23 05:32:39;;;;;;;9.28;2.55;;;;;;;16.77;81.42;99369.70;1780995;80;21451;-74
2021/07/23 05:35:07;;;;;;;6.05;2.25;;;;;;;16.91;80.40;99370.61;1780613;80;20990;-75
2021/07/23 05:37:34;;;;;;;10.95;2.22;;;;;;;17.01;79.24;99372.23;1780964;80;20908;-75
2021/07/23 05:40:00;;;;;;;6.62;2.40;;;;;;;17.14;79.98;99372.33;1785013;79;21039;-75
2021/07/23 05:42:27;;;;;;;4.87;2.25;;;;;;;17.27;79.57;99373.58;1785046;79;20939;-73
2021/07/23 05:44:54;;;;;;;5.87;2.75;;;;;;;17.37;77.49;99371.00;1777955;80;22057;-73
2021/07/23 05:47:20;;;;;;;3.60;2.50;;;;;;;17.47;76.31;99368.22;1732561;81;20972;-76
2021/07/23 05:49:47;;;;;;;26.75;4.50;;;;;;;17.59;77.05;99368.66;1758120;81;21016;-74
2021/07/23 05:52:14;;;;;;;5.83;2.67;;;;;;;17.69;73.90;99367.51;1757973;81;20893;-74
2021/07/23 05:54:40;;;;;;;4.78;2.47;;;;;;;17.77;73.09;99367.86;1758162;81;20941;-75
2021/07/23 05:57:07;;;;;;;14.05;3.58;;;;;;;17.86;72.66;99369.02;1757306;80;22248;-78
2021/07/23 05:59:33;;;;;;;3.00;2.02;;;;;;;17.92;72.50;99375.05;1757826;80;20924;-79
2021/07/23 06:02:00;;;;;;;7.00;2.72;;;;;;;18.04;72.61;99372.09;1758011;81;20901;-77
2021/07/23 06:04:26;;;;;;;8.23;2.35;;;;;;;18.18;74.13;99370.95;1757973;80;21003;-76
2021/07/23 06:06:52;;;;;;;5.92;2.52;;;;;;;18.34;74.67;99373.02;1757883;80;20933;-84
2021/07/23 06:09:19;;;;;;;6.65;2.37;;;;;;;18.48;72.88;99373.22;1758021;80;21662;-78
2021/07/23 06:11:46;;;;;;;5.67;2.33;;;;;;;18.60;72.15;99366.69;1757940;81;20889;-83
2021/07/23 06:14:13;;;;;;;6.78;2.60;;;;;;;18.73;71.15;99371.45;1780243;80;20949;-78
2021/07/23 06:16:41;;;;;;;8.68;2.70;;;;;;;18.83;70.82;99372.80;1789496;79;20997;-76
2021/07/23 06:19:09;;;;;;;9.13;2.47;;;;;;;18.94;70.92;99373.16;1786641;80;21040;-79
2021/07/23 06:21:36;;;;;;;5.85;2.35;;;;;;;19.08;70.94;99378.90;1785240;79;21939;-74
2021/07/23 06:24:03;;;;;;;6.40;2.10;;;;;;;19.23;70.50;99372.14;1786346;79;20832;-76
2021/07/23 06:26:29;;;;;;;11.55;2.17;;;;;;;19.34;68.95;99367.51;1775302;79;20982;-76
2021/07/23 06:28:56;;;;;;;8.23;1.85;;;;;;;19.45;69.40;99367.86;1771066;81;21386;-75
2021/07/23 06:31:24;;;;;;;4.67;2.15;;;;;;;19.58;67.54;99369.83;1771032;79;20899;-85
2021/07/23 06:33:54;;;;;;;2.05;1.82;;;;;;;19.67;67.56;99366.72;1771031;80;21458;-79
2021/07/23 06:36:22;;;;;;;6.75;2.08;;;;;;;19.77;67.88;99364.05;1770765;79;21018;-82
2021/07/23 06:38:48;;;;;;;10.45;2.85;;;;;;;19.90;67.48;99370.16;1789024;79;21520;-87
2021/07/23 06:41:15;;;;;;;4.12;1.60;;;;;;;20.03;65.99;99368.70;1788764;79;20926;-85
2021/07/23 06:43:48;;;;;;;3.42;2.10;;;;;;;20.17;67.21;99368.63;1770887;81;20994;-86
2021/07/23 06:46:19;;;;;;;8.40;2.10;;;;;;;20.30;64.32;99364.34;1752167;79;20867;-81
2021/07/23 06:48:49;;;;;;;4.03;1.70;;;;;;;20.42;64.65;99364.88;1795531;77;21001;-79
2021/07/23 06:51:22;;;;;;;5.25;1.37;;;;;;;20.57;64.86;99366.38;1811722;77;20914;-74
2021/07/23 06:53:59;;;;;;;3.72;1.60;;;;;;;20.68;62.27;99366.67;1786412;80;20954;-73
2021/07/23 06:56:30;;;;;;;5.15;1.70;;;;;;;20.80;61.40;99361.34;1759277;80;20972;-78
2021/07/23 06:59:04;;;;;;;6.25;1.65;;;;;;;20.88;61.25;99358.00;1790127;78;21199;-73
2021/07/23 07:01:30;;;;;;;;;;;;;;;20.95;59.83;99359.44;1766917;80;20929;-73
2021/07/23 07:04:05;;;;;;;4.08;1.35;;;;;;;21.00;56.13;99359.08;1770935;81;20451;-76
2021/07/23 07:06:36;;;;;;;4.17;1.22;;;;;;;21.05;58.48;99355.91;1747126;81;21002;-76
2021/07/23 07:09:08;;;;;;;6.83;1.50;;;;;;;21.15;60.23;99348.19;1792998;79;20898;-73
2021/07/23 07:11:38;;;;;;;5.55;1.60;;;;;;;21.30;60.25;99344.91;1802865;78;21394;-89
2021/07/23 07:14:06;;;;;;;4.12;1.10;;;;;;;21.43;57.71;99341.94;1774870;79;20947;-77
2021/07/23 07:16:34;;;;;;;6.50;1.20;;;;;;;21.50;57.58;99340.56;1771281;80;20988;-82
2021/07/23 07:19:07;;;;;;;3.95;1.07;;;;;;;21.59;53.41;99344.39;1780319;80;21416;-77
2021/07/23 07:21:35;;;;;;;3.37;1.10;;;;;;;21.64;55.07;99348.19;1780105;80;20903;-88
2021/07/23 07:24:06;;;;;;;2.70;1.30;;;;;;;21.75;56.82;99344.83;1750495;81;21764;-73
2021/07/23 07:26:34;;;;;;;5.70;1.95;;;;;;;21.90;55.61;99345.66;1749521;80;20915;-80
2021/07/23 07:29:04;;;;;;;8.13;1.70;;;;;;;21.97;55.44;99342.25;1750278;82;20878;-78
2021/07/23 07:31:37;;;;;;;9.38;1.20;;;;;;;22.10;55.65;99349.69;1749937;81;20871;-77
2021/07/23 07:34:06;;;;;;;4.53;1.55;;;;;;;22.21;53.59;99349.10;1725087;82;20863;-78
2021/07/23 07:36:36;;;;;;;2.98;1.70;;;;;;;22.27;53.42;99343.31;1750202;80;21148;-74
2021/07/23 07:39:09;;;;;;;3.65;1.50;;;;;;;22.33;51.40;99345.91;1750484;82;20906;-73
2021/07/23 07:41:40;;;;;;;9.70;1.90;;;;;;;22.40;51.74;99345.12;1747892;80;20903;-81
2021/07/23 07:44:10;;;;;;;11.53;2.85;;;;;;;22.51;52.57;99348.70;1724531;82;20950;-86
2021/07/23 07:46:41;;;;;;;2.37;1.32;;;;;;;22.66;52.00;99348.06;1756741;80;21003;-73
2021/07/23 07:49:19;;;;;;;3.60;1.15;;;;;;;22.78;51.21;99351.84;1764795;80;21118;-73
2021/07/23 07:51:47;;;;;;;3.50;1.00;;;;;;;22.87;48.36;99356.46;1767121;81;20938;-75
2021/07/23 07:54:17;;;;;;;;;;;;;;;22.90;49.65;99350.06;1757094;81;20963;-75
2021/07/23 07:56:47;;;;;;;6.62;0.90;;;;;;;22.95;49.12;99351.65;1768387;81;20098;-87
2021/07/23 07:59:22;;;;;;;1.63;0.70;;;;;;;22.99;47.10;99354.64;1764756;81;21034;-84
2021/07/23 08:01:54;;;;;;;3.90;1.10;;;;;;;23.05;46.79;99355.83;1747337;81;20912;-79
2021/07/23 08:04:30;;;;;;;1.98;0.90;;;;;;;23.10;46.87;99355.21;1746738;81;20915;-78
2021/07/23 08:07:06;;;;;;;8.38;1.00;;;;;;;23.17;47.04;99348.16;1765045;80;20943;-79
2021/07/23 08:09:53;;;;;;;4.97;1.60;;;;;;;23.28;46.04;99355.92;1747155;81;21487;-81
2021/07/23 08:12:21;;;;;;;3.90;1.00;;;;;;;23.33;46.87;99350.70;1764757;80;21506;-79
2021/07/23 08:14:53;;;;;;;6.92;1.20;;;;;;;23.45;45.32;99356.45;1811853;79;21174;-78
2021/07/23 08:17:25;;;;;;;2.80;0.80;;;;;;;23.63;44.55;99357.81;1813394;79;21068;-80
2021/07/23 08:19:57;;;;;;;7.37;1.55;;;;;;;23.94;46.30;99352.59;1813384;79;20868;-81
2021/07/23 08:22:25;;;;;;;2.30;0.90;;;;;;;24.38;44.56;99359.50;1785453;79;20923;-80
2021/07/23 08:24:55;;;;;;;2.62;0.88;;;;;;;24.81;42.97;99354.91;1808031;79;20970;-80
2021/07/23 08:27:27;;;;;;;3.08;1.10;;;;;;;25.18;42.20;99349.91;1813265;79;21133;-80
2021/07/23 08:29:58;;;;;;;5.87;1.12;;;;;;;25.30;40.41;99347.36;1813531;79;21423;-80
2021/07/23 08:32:31;;;;;;;2.85;0.82;;;;;;;25.23;42.20;99346.64;1813261;79;20923;-80
2021/07/23 08:35:04;;;;;;;6.40;1.20;;;;;;;24.99;41.53;99361.14;1813447;79;21015;-80
2021/07/23 08:37:34;;;;;;;15.65;2.37;;;;;;;24.65;42.82;99362.48;1812285;79;20904;-82
2021/07/23 08:40:06;;;;;;;2.75;0.95;;;;;;;24.33;43.59;99361.34;1811651;79;21084;-81
2021/07/23 08:42:38;;;;;;;3.77;1.05;;;;;;;24.28;44.04;99357.58;1811975;79;21517;-81
2021/07/23 08:45:11;;;;;;;7.80;1.15;;;;;;;24.57;44.29;99359.55;1734916;79;20931;-78
2021/07/23 08:47:42;;;;;;;14.45;2.42;;;;;;;25.14;44.17;99354.77;1789441;79;21423;-78
2021/07/23 08:50:18;;;;;;;1.82;1.00;;;;;;;25.70;43.38;99349.67;1788875;79;20840;-82
2021/07/23 08:52:51;;;;;;;4.35;1.17;;;;;;;25.81;40.38;99354.53;1813615;79;21099;-82
2021/07/23 08:55:27;;;;;;;3.15;1.15;;;;;;;25.88;41.97;99348.81;1814830;79;20951;-81
2021/07/23 08:57:58;;;;;;;2.90;1.00;;;;;;;26.14;40.62;99352.20;1814664;79;20833;-83
2021/07/23 09:00:25;;;;;;;;;;;;;;;26.52;41.47;99346.41;1816796;79;20903;-82
2021/07/23 09:03:07;;;;;;;3.17;1.00;;;;;;;26.86;38.83;99346.97;1814015;79;20117;-83
2021/07/23 09:05:45;;;;;;;1.82;1.20;;;;;;;26.97;38.60;99348.21;1813840;79;21529;-84
2021/07/23 09:08:24;;;;;;;2.83;1.17;;;;;;;27.12;37.22;99346.72;1812827;79;20871;-81
2021/07/23 09:11:08;;;;;;;2.83;1.00;;;;;;;27.30;40.00;99350.56;1813862;79;20860;-80
2021/07/23 09:13:37;;;;;;;2.12;0.95;;;;;;;27.59;38.23;99343.75;1799925;79;20937;-81
2021/07/23 09:16:25;;;;;;;3.02;1.02;;;;;;;27.88;37.11;99344.68;1782006;80;20899;-82
2021/07/23 09:19:08;;;;;;;2.30;1.00;;;;;;;28.05;35.95;99341.27;1781862;80;21154;-81
2021/07/23 09:21:50;;;;;;;3.05;0.90;;;;;;;28.15;35.92;99339.43;1757647;80;20926;-83
2021/07/23 09:24:18;;;;;;;1.35;0.90;;;;;;;28.39;34.79;99337.23;1759431;80;20962;-82
2021/07/23 09:26:52;;;;;;;12.18;0.90;;;;;;;28.48;35.30;99335.38;1784109;80;21564;-80
2021/07/23 09:29:23;;;;;;;3.00;1.00;;;;;;;28.48;33.21;99326.12;1783935;80;21104;-79
2021/07/23 09:32:11;;;;;;;4.95;1.25;;;;;;;28.31;34.99;99319.69;1758648;80;22114;-80
2021/07/23 09:34:40;;;;;;;10.05;1.62;;;;;;;28.30;34.50;99322.98;1758717;80;20961;-71
2021/07/23 09:37:16;;;;;;;6.47;1.20;;;;;;;28.36;34.59;99324.01;1784261;80;20962;-78
2021/07/23 09:39:49;;;;;;;4.28;0.98;;;;;;;28.34;34.83;99323.03;1787283;78;21036;-72
2021/07/23 09:42:26;;;;;;;3.15;0.98;;;;;;;28.33;35.02;99322.06;1783846;79;21490;-70
2021/07/23 09:45:07;;;;;;;5.03;1.00;;;;;;;28.35;35.79;99321.80;1793512;79;21728;-74
2021/07/23 09:47:35;;;;;;;2.50;0.93;;;;;;;28.56;36.15;99320.47;1783571;79;20987;-77
2021/07/23 09:50:10;;;;;;;3.65;1.12;;;;;;;28.75;35.67;99317.35;1780977;80;22142;-74
2021/07/23 09:52:42;;;;;;;3.25;1.10;;;;;;;28.69;33.43;99319.12;1782645;79;20995;-74
2021/07/23 09:55:12;;;;;;;5.53;0.90;;;;;;;28.41;34.71;99322.86;1785033;79;20953;-70
2021/07/23 09:57:47;;;;;;;2.67;0.88;;;;;;;28.17;34.34;99313.77;1794458;79;21144;-71
2021/07/23 10:00:20;;;;;;;5.03;1.00;;;;;;;28.14;35.34;99316.67;1704411;81;20990;-69
2021/07/23 10:02:55;;;;;;;1.67;0.90;;;;;;;28.32;34.98;99312.01;1782244;79;20954;-73
2021/07/23 10:05:30;;;;;;;2.70;0.85;;;;;;;28.62;33.86;99305.19;1782693;79;21422;-73
2021/07/23 10:08:03;;;;;;;2.70;0.70;;;;;;;28.80;34.66;99310.55;1801646;79;21371;-68
2021/07/23 10:10:36;;;;;;;1.32;0.82;;;;;;;28.95;33.50;99305.92;1781388;79;20966;-70
2021/07/23 10:13:07;;;;;;;6.42;1.47;;;;;;;29.00;33.19;99306.78;1791359;79;20985;-70
2021/07/23 10:15:38;;;;;;;5.50;1.05;;;;;;;28.98;33.11;99313.50;1778240;79;20882;-70
2021/07/23 10:18:06;;;;;;;2.00;0.90;;;;;;;29.08;34.03;99303.94;1764956;80;21402;-71
2021/07/23 10:20:35;;;;;;;5.12;1.10;;;;;;;29.25;32.38;99306.87;1811803;79;20955;-70
2021/07/23 10:23:03;;;;;;;5.20;1.03;;;;;;;29.35;33.28;99304.35;1812709;79;21239;-71
2021/07/23 10:25:34;;;;;;;5.12;1.10;;;;;;;29.39;32.71;99303.62;1785881;79;21001;-71
2021/07/23 10:28:04;;;;;;;1.70;0.85;;;;;;;29.45;33.23;99293.38;1813329;79;20971;-71
2021/07/23 10:30:36;;;;;;;4.03;0.95;;;;;;;29.59;33.26;99290.71;1786249;79;20855;-71
2021/07/23 10:33:06;;;;;;;2.95;1.20;;;;;;;29.61;32.66;99294.50;1785390;79;20835;-70
2021/07/23 10:35:40;;;;;;;5.53;1.30;;;;;;;29.60;33.08;99295.75;1786675;79;21147;-71
2021/07/23 10:38:11;;;;;;;4.22;1.40;;;;;;;29.56;30.58;99291.61;1813236;79;21005;-69
2021/07/23 10:40:41;;;;;;;5.35;1.00;;;;;;;29.42;32.75;99285.00;1813457;79;20903;-70
2021/07/23 10:43:35;;;;;;;12.35;1.30;;;;;;;29.41;33.35;99294.70;1760607;79;38877;-71
2021/07/23 10:46:03;;;;;;;3.20;1.05;;;;;;;29.45;32.87;99283.48;1812644;79;20934;-72
2021/07/23 10:48:50;;;;;;;4.10;1.00;;;;;;;29.57;31.78;99286.13;1811914;78;21149;-71
2021/07/23 10:51:49;;;;;;;1.95;1.05;;;;;;;29.69;32.09;99286.77;1811792;78;21508;-71
2021/07/23 10:54:28;;;;;;;1.45;0.78;;;;;;;29.79;32.86;99277.15;1809695;79;20915;-70
2021/07/23 10:57:03;;;;;;;2.00;0.93;;;;;;;29.99;33.06;99274.09;1812065;78;20840;-70
2021/07/23 10:59:47;;;;;;;4.30;1.22;;;;;;;29.98;32.38;99266.84;1811952;78;20827;-69
2021/07/23 11:02:19;;;;;;;;;;;;;;;29.66;32.64;99279.80;1814550;79;21092;-71
2021/07/23 11:04:54;;;;;;;9.55;1.17;;;;;;;29.50;32.70;99267.97;1812004;78;20237;-73
2021/07/23 11:07:32;;;;;;;8.35;1.22;;;;;;;29.51;33.88;99266.72;1811862;78;20910;-72
2021/07/23 11:10:09;;;;;;;9.20;1.30;;;;;;;29.50;33.66;99265.93;1811918;78;20922;-71
2021/07/23 11:12:46;;;;;;;4.45;1.32;;;;;;;29.16;33.10;99274.23;1811585;78;20959;-71
2021/07/23 11:15:18;;;;;;;4.25;1.00;;;;;;;28.74;32.55;99268.54;1791030;79;20867;-71
2021/07/23 11:17:54;;;;;;;4.22;1.02;;;;;;;28.60;33.01;99266.10;1811701;79;20923;-71
2021/07/23 11:20:33;;;;;;;3.95;1.22;;;;;;;28.80;34.97;99269.59;1788944;79;20942;-72
2021/07/23 11:23:01;;;;;;;8.28;1.20;;;;;;;29.22;33.52;99263.95;1816672;79;20971;-72
2021/07/23 11:25:30;;;;;;;3.47;1.20;;;;;;;29.54;32.22;99261.58;1816759;79;20920;-71
2021/07/23 11:28:11;;;;;;;2.27;1.07;;;;;;;29.67;32.47;99257.34;1783736;79;21041;-72
2021/07/23 11:30:49;;;;;;;1.20;0.88;;;;;;;29.78;32.80;99257.80;1739273;81;21066;-72
2021/07/23 11:33:21;;;;;;;10.03;1.25;;;;;;;29.92;31.61;99261.59;1763914;81;21533;-71
2021/07/23 11:35:54;;;;;;;6.08;1.50;;;;;;;30.08;31.80;99250.14;1713559;81;20970;-71
2021/07/23 11:38:24;;;;;;;2.62;1.07;;;;;;;30.25;31.74;99251.41;1739517;81;21494;-71
2021/07/23 11:41:09;;;;;;;10.32;1.70;;;;;;;30.37;31.91;99245.72;1765009;80;23289;-70
2021/07/23 11:43:45;;;;;;;9.73;1.87;;;;;;;30.51;32.17;99245.84;1741573;79;21085;-71
2021/07/23 11:46:16;;;;;;;2.60;1.30;;;;;;;30.57;31.50;99244.05;1745149;79;20966;-70
2021/07/23 11:48:56;;;;;;;11.05;4.45;;;;;;;30.46;31.16;99241.56;1753984;80;20896;-71